createdAt,value
2022-10-11T00:02:26.315Z,10.60
2022-10-11T00:05:16.936Z,10.70
2022-10-11T00:08:07.333Z,10.80
2022-10-11T00:11:01.348Z,10.00
2022-10-11T00:13:51.233Z,10.90
2022-10-11T00:16:43.782Z,10.80
2022-10-11T00:19:33.983Z,10.10
2022-10-11T00:22:24.121Z,10.50
2022-10-11T00:25:14.487Z,10.90
2022-10-11T00:28:04.656Z,11.20
2022-10-11T00:30:54.599Z,11.30
2022-10-11T00:33:44.863Z,10.30
2022-10-11T00:36:34.886Z,10.30
2022-10-11T00:39:24.777Z,10.20
2022-10-11T00:42:14.865Z,10.30
2022-10-11T00:45:53.891Z,10.20
2022-10-11T00:48:45.064Z,10.90
2022-10-11T00:51:49.032Z,10.10
2022-10-11T00:54:40.683Z,9.70
2022-10-11T00:57:33.421Z,9.60
2022-10-11T01:00:23.572Z,10.20
2022-10-11T01:03:13.511Z,9.90
2022-10-11T01:06:05.464Z,10.00
2022-10-11T01:08:55.728Z,9.40
2022-10-11T01:11:45.872Z,10.10
2022-10-11T01:15:01.376Z,9.50
2022-10-11T01:17:53.768Z,10.00
2022-10-11T01:20:50.671Z,10.20
2022-10-11T01:24:24.233Z,10.20
2022-10-11T01:27:49.457Z,9.10
2022-10-11T01:30:39.356Z,9.50
2022-10-11T01:33:32.479Z,9.60
2022-10-11T01:36:30.264Z,9.00
2022-10-11T01:39:22.711Z,9.50
2022-10-11T01:42:13.091Z,9.10
2022-10-11T01:45:03.181Z,8.80
2022-10-11T01:48:05.154Z,9.30
2022-10-11T01:50:55.633Z,10.60
2022-10-11T01:54:09.600Z,8.80
2022-10-11T01:57:25.750Z,9.20
2022-10-11T02:00:17.306Z,10.20
2022-10-11T02:03:17.600Z,10.90
2022-10-11T02:06:11.386Z,11.20
2022-10-11T02:09:08.262Z,10.80
2022-10-11T02:12:02.317Z,10.20
2022-10-11T02:14:52.179Z,10.50
2022-10-11T02:17:44.781Z,9.80
2022-10-11T02:20:34.627Z,11.90
2022-10-11T02:23:31.284Z,11.40
2022-10-11T02:26:22.096Z,11.10
2022-10-11T02:29:13.301Z,12.40
2022-10-11T02:32:03.265Z,12.00
2022-10-11T02:34:54.413Z,12.50
2022-10-11T02:37:50.201Z,12.00
2022-10-11T02:40:41.653Z,11.70
2022-10-11T02:43:36.347Z,13.10
2022-10-11T02:46:26.629Z,12.20
2022-10-11T02:49:17.066Z,13.50
2022-10-11T02:52:07.601Z,13.80
2022-10-11T02:54:57.789Z,13.00
2022-10-11T02:57:47.708Z,13.40
2022-10-11T03:00:38.975Z,14.40
2022-10-11T03:03:28.854Z,13.10
2022-10-11T03:06:19.292Z,13.90
2022-10-11T03:09:09.186Z,14.40
2022-10-11T03:11:59.040Z,13.30
2022-10-11T03:14:49.130Z,14.30
2022-10-11T03:17:39.067Z,13.30
2022-10-11T03:20:29.024Z,14.70
2022-10-11T03:23:18.920Z,15.00
2022-10-11T03:26:09.269Z,15.10
2022-10-11T03:28:59.418Z,14.10
2022-10-11T03:31:49.312Z,14.60
2022-10-11T03:34:39.543Z,15.20
2022-10-11T03:37:29.810Z,15.30
2022-10-11T03:40:20.300Z,15.10
2022-10-11T03:43:13.211Z,15.80
2022-10-11T03:46:03.765Z,14.60
2022-10-11T03:48:54.267Z,16.00
2022-10-11T03:51:44.107Z,15.80
2022-10-11T03:54:34.012Z,16.60
2022-10-11T03:57:23.879Z,17.00
2022-10-11T04:00:14.828Z,15.80
2022-10-11T04:03:04.921Z,17.20
2022-10-11T04:05:55.386Z,17.10
2022-10-11T04:08:45.732Z,16.90
2022-10-11T04:11:35.601Z,16.30
2022-10-11T04:14:25.977Z,16.80
2022-10-11T04:17:16.056Z,17.40
2022-10-11T04:20:09.995Z,15.90
2022-10-11T04:22:59.906Z,16.10
2022-10-11T04:25:49.764Z,17.60
2022-10-11T04:28:39.714Z,16.80
2022-10-11T04:31:29.621Z,17.70
2022-10-11T04:34:19.671Z,16.90
2022-10-11T04:37:09.587Z,18.80
2022-10-11T04:39:59.927Z,16.90
2022-10-11T04:42:52.700Z,16.60
2022-10-11T04:45:45.098Z,18.00
2022-10-11T04:48:35.442Z,16.40
2022-10-11T04:51:25.493Z,16.40
2022-10-11T04:54:17.313Z,16.00
2022-10-11T04:57:07.451Z,18.30
2022-10-11T04:59:57.376Z,19.10
2022-10-11T05:02:47.508Z,17.80
2022-10-11T05:05:37.393Z,18.80
2022-10-11T05:08:27.495Z,17.70
2022-10-11T05:11:17.870Z,16.90
2022-10-11T05:14:07.938Z,16.70
2022-10-11T05:17:04.477Z,17.10
2022-10-11T05:19:54.611Z,18.40
2022-10-11T05:22:44.542Z,17.30
2022-10-11T05:25:34.546Z,18.30
2022-10-11T05:28:24.635Z,18.00
2022-10-11T05:31:15.013Z,16.30
2022-10-11T05:34:04.988Z,16.50
2022-10-11T05:36:57.763Z,16.70
2022-10-11T05:39:48.004Z,16.90
2022-10-11T05:42:38.009Z,16.50
2022-10-11T05:45:28.389Z,16.80
2022-10-11T05:48:18.321Z,17.00
2022-10-11T05:51:10.018Z,16.90
2022-10-11T05:54:00.108Z,17.40
2022-10-11T05:56:50.000Z,15.80
2022-10-11T05:59:39.905Z,16.90
2022-10-11T06:02:29.925Z,17.50
2022-10-11T06:05:19.923Z,16.80
2022-10-11T06:08:10.526Z,15.70
2022-10-11T06:11:12.149Z,16.00
2022-10-11T06:14:02.418Z,15.80
2022-10-11T06:16:52.603Z,15.30
2022-10-11T06:19:42.501Z,14.10
2022-10-11T06:22:32.541Z,14.10
2022-10-11T06:25:22.492Z,13.80
2022-10-11T06:28:12.602Z,12.80
2022-10-11T06:31:03.537Z,14.40
2022-10-11T06:33:53.565Z,14.10
2022-10-11T06:36:43.567Z,13.70
2022-10-11T06:39:34.395Z,14.90
2022-10-11T06:42:27.754Z,19.40
2022-10-11T06:45:17.717Z,15.20
2022-10-11T06:48:08.645Z,15.50
2022-10-11T06:51:00.826Z,12.30
2022-10-11T06:53:54.841Z,14.00
2022-10-11T06:56:45.896Z,12.10
2022-10-11T06:59:35.854Z,13.40
2022-10-11T07:02:26.193Z,10.80
2022-10-11T07:05:16.567Z,11.20
2022-10-11T07:08:07.157Z,12.00
2022-10-11T07:11:01.737Z,10.80
2022-10-11T07:13:52.585Z,10.80
2022-10-11T07:16:42.730Z,13.40
2022-10-11T07:19:33.307Z,11.90
2022-10-11T07:22:23.426Z,11.80
2022-10-11T07:25:13.983Z,11.20
2022-10-11T07:28:04.519Z,10.90
2022-10-11T07:30:55.465Z,10.60
2022-10-11T07:33:45.622Z,11.10
2022-10-11T07:36:36.417Z,9.60
2022-10-11T07:39:27.980Z,10.80
2022-10-11T07:42:19.439Z,10.10
2022-10-11T07:45:11.067Z,11.00
2022-10-11T07:48:01.018Z,11.20
2022-10-11T07:50:51.251Z,9.50
2022-10-11T07:53:43.031Z,13.20
2022-10-11T07:56:33.152Z,10.60
2022-10-11T07:59:23.358Z,11.20
2022-10-11T08:02:13.789Z,9.40
2022-10-11T08:05:04.448Z,8.90
2022-10-11T08:07:54.368Z,10.00
2022-10-11T08:10:44.292Z,10.10
2022-10-11T08:13:35.226Z,9.20
2022-10-11T08:16:25.198Z,10.10
2022-10-11T08:19:15.309Z,9.80
2022-10-11T08:22:05.866Z,9.90
2022-10-11T08:24:55.888Z,9.00
2022-10-11T08:27:46.033Z,9.00
2022-10-11T08:30:36.067Z,9.60
2022-10-11T08:33:26.813Z,9.80
2022-10-11T08:36:16.816Z,9.50
2022-10-11T08:39:08.354Z,9.60
2022-10-11T08:42:01.695Z,8.60
2022-10-11T08:45:11.729Z,9.10
2022-10-11T08:48:13.262Z,8.60
2022-10-11T08:51:04.303Z,7.60
2022-10-11T08:53:57.009Z,8.50
2022-10-11T08:56:47.433Z,7.80
2022-10-11T08:59:44.425Z,11.10
2022-10-11T09:03:06.780Z,8.70
2022-10-11T09:06:03.483Z,8.60
2022-10-11T09:09:20.901Z,9.10
2022-10-11T09:12:17.278Z,8.20
2022-10-11T09:15:23.289Z,8.40
2022-10-11T09:18:34.712Z,9.10
2022-10-11T09:21:32.570Z,8.60
2022-10-11T09:24:33.178Z,8.30
2022-10-11T09:27:50.415Z,8.10
2022-10-11T09:30:40.664Z,8.40
2022-10-11T09:33:38.925Z,8.40
2022-10-11T09:36:34.128Z,8.90
2022-10-11T09:39:31.546Z,8.60
2022-10-11T09:42:21.885Z,8.40
2022-10-11T09:45:18.149Z,9.40
2022-10-11T09:51:01.724Z,7.70
2022-10-11T09:53:57.317Z,8.40
2022-10-11T09:56:47.397Z,7.20
2022-10-11T09:59:37.408Z,8.10
2022-10-11T10:02:27.594Z,8.10
2022-10-11T10:05:21.007Z,7.50
2022-10-11T10:08:24.694Z,7.10
2022-10-11T10:11:14.796Z,8.10
2022-10-11T10:14:04.681Z,7.30
2022-10-11T10:17:05.727Z,7.60
2022-10-11T10:19:56.435Z,7.10
2022-10-11T10:22:46.586Z,7.80
2022-10-11T10:25:43.387Z,7.00
2022-10-11T10:28:33.955Z,7.20
2022-10-11T10:31:25.908Z,6.90
2022-10-11T10:34:18.136Z,8.30
2022-10-11T10:37:14.763Z,7.60
2022-10-11T10:40:08.388Z,7.70
2022-10-11T10:42:58.427Z,8.20
2022-10-11T10:46:29.883Z,8.20
2022-10-11T10:49:54.935Z,8.50
2022-10-11T10:52:48.010Z,8.50
2022-10-11T10:55:41.709Z,8.00
2022-10-11T10:58:51.302Z,7.70
2022-10-11T11:01:49.316Z,7.10
2022-10-11T11:04:40.038Z,11.80
2022-10-11T11:07:35.344Z,8.20
2022-10-11T11:10:29.822Z,10.00
2022-10-11T11:13:25.369Z,9.60
2022-10-11T11:16:18.447Z,10.00
2022-10-11T11:19:27.541Z,9.30
2022-10-11T11:22:25.577Z,8.90
2022-10-11T11:25:30.266Z,7.10
2022-10-11T11:28:47.825Z,10.60
2022-10-11T11:31:49.565Z,8.00
2022-10-11T11:34:41.636Z,7.90
2022-10-11T11:37:34.745Z,11.10
2022-10-11T11:40:29.658Z,9.80
2022-10-11T11:43:23.121Z,9.30
2022-10-11T11:46:17.534Z,8.30
2022-10-11T11:49:13.369Z,8.10
2022-10-11T11:52:03.653Z,8.40
2022-10-11T11:55:03.765Z,8.40
2022-10-11T11:58:03.265Z,8.60
2022-10-11T12:01:01.054Z,9.70
2022-10-11T12:03:54.598Z,9.90
2022-10-11T12:07:11.212Z,7.00
2022-10-11T12:10:13.892Z,8.00
2022-10-11T12:13:09.676Z,8.30
2022-10-11T12:16:11.974Z,8.60
2022-10-11T12:19:04.261Z,7.80
2022-10-11T12:22:15.722Z,7.00
2022-10-11T12:25:43.367Z,8.60
2022-10-11T12:29:25.954Z,8.70
2022-10-11T12:32:51.493Z,8.10
2022-10-11T12:36:04.127Z,8.10
2022-10-11T12:39:50.986Z,9.00
2022-10-11T12:42:42.905Z,8.30
2022-10-11T12:45:47.589Z,12.00
2022-10-11T12:48:47.734Z,9.80
2022-10-11T12:51:40.322Z,8.50
2022-10-11T12:55:23.982Z,8.10
2022-10-11T12:58:52.700Z,7.30
2022-10-11T13:02:38.193Z,8.60
2022-10-11T13:06:15.909Z,8.20
2022-10-11T13:16:57.744Z,6.10
2022-10-11T13:29:58.515Z,9.10
2022-10-11T13:33:36.060Z,7.60
2022-10-11T13:36:31.456Z,11.60
2022-10-11T13:45:40.674Z,7.00
2022-10-11T13:49:51.300Z,9.70
2022-10-11T13:53:35.390Z,10.20
2022-10-11T13:57:20.129Z,10.70
2022-10-11T16:24:22.362Z,7.60
2022-10-11T16:27:34.384Z,8.10
2022-10-11T16:47:05.383Z,10.50
2022-10-11T16:50:13.072Z,8.30
2022-10-11T16:53:49.349Z,12.70
2022-10-11T16:56:40.239Z,14.70
2022-10-11T16:59:30.539Z,16.80
2022-10-11T17:02:22.496Z,13.90
2022-10-11T17:05:12.501Z,22.20
2022-10-11T17:08:02.713Z,27.10
2022-10-11T17:10:57.790Z,35.00
2022-10-11T17:13:48.998Z,36.10
2022-10-11T17:16:39.053Z,39.40
2022-10-11T17:19:29.255Z,44.90
2022-10-11T17:22:20.230Z,43.90
2022-10-11T17:25:10.940Z,44.90
2022-10-11T17:28:01.432Z,42.10
2022-10-11T17:30:58.310Z,44.30
2022-10-11T17:33:48.263Z,44.60
2022-10-11T17:36:38.445Z,43.00
2022-10-11T17:39:28.629Z,45.80
2022-10-11T17:42:18.642Z,51.00
2022-10-11T17:45:10.746Z,50.70
2022-10-11T17:48:03.582Z,51.00
2022-10-11T17:50:53.903Z,45.80
2022-10-11T17:53:44.652Z,39.50
2022-10-11T17:56:38.049Z,38.30
2022-10-11T17:59:30.088Z,33.30
2022-10-11T18:02:20.248Z,32.40
2022-10-11T18:05:13.794Z,33.80
2022-10-11T18:08:03.884Z,36.50
2022-10-11T18:10:53.885Z,31.80
2022-10-11T18:13:45.854Z,32.30
2022-10-11T18:16:36.247Z,30.20
2022-10-11T18:19:27.044Z,30.70
2022-10-11T18:22:17.552Z,29.20
2022-10-11T18:25:09.260Z,27.40
2022-10-11T18:27:59.421Z,32.70
2022-10-11T18:30:49.641Z,29.60
2022-10-11T18:33:39.797Z,30.00
2022-10-11T18:36:32.990Z,30.50
2022-10-11T18:39:23.065Z,28.10
2022-10-11T18:42:13.099Z,27.80
2022-10-11T18:45:05.648Z,30.50
2022-10-11T18:47:56.931Z,28.10
2022-10-11T18:50:46.896Z,31.10
2022-10-11T18:53:37.276Z,28.50
2022-10-11T18:56:28.637Z,27.40
2022-10-11T18:59:19.569Z,27.90
2022-10-11T19:02:11.043Z,28.00
2022-10-11T19:05:04.571Z,28.70
2022-10-11T19:07:54.577Z,27.10
2022-10-11T19:10:45.852Z,26.20
2022-10-11T19:13:36.397Z,29.50
2022-10-11T19:16:28.995Z,27.60
2022-10-11T19:19:19.857Z,28.90
2022-10-11T19:22:09.993Z,27.00
2022-10-11T19:24:59.982Z,29.40
2022-10-11T19:27:50.029Z,30.90
2022-10-11T19:30:40.082Z,27.60
2022-10-11T19:33:30.303Z,28.00
2022-10-11T19:36:21.571Z,27.10
2022-10-11T19:39:13.471Z,27.10
2022-10-11T19:42:04.462Z,27.80
2022-10-11T19:44:54.473Z,27.70
2022-10-11T19:47:44.491Z,27.00
2022-10-11T19:50:34.572Z,28.30
2022-10-11T19:53:24.983Z,25.50
2022-10-11T19:56:17.141Z,27.10
2022-10-11T19:59:07.446Z,26.90
2022-10-11T20:01:57.462Z,25.80
2022-10-11T20:04:52.451Z,28.20
2022-10-11T20:07:43.372Z,27.20
2022-10-11T20:10:33.838Z,25.50
2022-10-11T20:13:24.221Z,25.50
2022-10-11T20:16:15.517Z,27.70
2022-10-11T20:19:05.870Z,25.20
2022-10-11T20:21:56.188Z,27.30
2022-10-11T20:24:46.159Z,28.40
2022-10-11T20:27:36.460Z,24.30
2022-10-11T20:30:26.485Z,25.80
2022-10-11T20:33:16.830Z,28.10
2022-10-11T20:36:09.888Z,26.70
2022-10-11T20:39:00.662Z,24.70
2022-10-11T20:41:50.769Z,25.40
2022-10-11T20:44:44.056Z,25.10
2022-10-11T20:47:34.948Z,24.60
2022-10-11T20:50:26.322Z,25.50
2022-10-11T20:53:16.488Z,26.40
2022-10-11T20:56:08.337Z,26.30
2022-10-11T20:58:58.782Z,25.50
2022-10-11T21:01:48.949Z,24.10
2022-10-11T21:04:40.991Z,26.90
2022-10-11T21:07:31.212Z,24.60
2022-10-11T21:10:21.717Z,26.10
2022-10-11T21:13:11.807Z,24.00
2022-10-11T21:16:07.336Z,25.70
2022-10-11T21:18:58.980Z,23.20
2022-10-11T21:21:53.470Z,26.30
2022-10-11T21:24:43.940Z,24.30
2022-10-11T21:27:34.108Z,25.10
2022-10-11T21:30:30.866Z,23.50
2022-10-11T21:33:37.556Z,23.40
2022-10-11T21:36:36.835Z,24.30
2022-10-11T21:39:33.036Z,24.20
2022-10-11T21:42:28.571Z,23.80
2022-10-11T21:45:27.176Z,26.10
2022-10-11T21:48:37.773Z,26.00
2022-10-11T21:56:02.809Z,21.00
2022-10-11T21:58:55.792Z,24.40
2022-10-11T22:01:49.963Z,25.40
2022-10-11T22:05:03.522Z,21.80
2022-10-11T22:07:53.910Z,22.20
2022-10-11T22:10:53.682Z,24.20
2022-10-11T22:13:49.355Z,22.20
2022-10-11T22:16:48.330Z,20.80
2022-10-11T22:19:52.699Z,23.70
2022-10-11T22:23:01.584Z,22.30
2022-10-11T22:26:06.532Z,22.50
2022-10-11T22:29:13.095Z,20.30
2022-10-11T22:32:36.311Z,19.90
2022-10-11T22:35:37.177Z,21.00
2022-10-11T22:38:43.623Z,22.00
2022-10-11T22:41:47.203Z,18.40
2022-10-11T22:45:02.298Z,20.70
2022-10-11T22:48:03.953Z,19.90
2022-10-11T22:51:02.632Z,19.70
2022-10-11T22:54:02.149Z,18.90
2022-10-11T22:57:13.798Z,18.90
2022-10-11T23:00:28.501Z,20.20
2022-10-11T23:03:23.094Z,19.30
2022-10-11T23:06:28.937Z,19.30
2022-10-11T23:09:21.905Z,18.60
2022-10-11T23:12:12.729Z,18.20
2022-10-11T23:15:03.845Z,19.60
2022-10-11T23:17:57.629Z,17.20
2022-10-11T23:20:49.437Z,19.20
2022-10-11T23:23:42.314Z,19.20
2022-10-11T23:26:35.937Z,18.40
2022-10-11T23:29:39.668Z,18.10
2022-10-11T23:32:35.083Z,18.20
2022-10-11T23:35:30.371Z,18.10
2022-10-11T23:38:28.249Z,19.00
2022-10-11T23:41:25.466Z,18.50
2022-10-11T23:44:25.326Z,16.70
2022-10-11T23:47:26.759Z,17.70
2022-10-11T23:50:43.253Z,17.40
2022-10-11T23:53:42.190Z,17.30
2022-10-11T23:56:44.143Z,17.20
2022-10-11T23:59:40.329Z,17.00
